createdAt,value
2018-07-09T00:00:42.622Z,100734.70
2018-07-09T00:03:15.906Z,100722.46
2018-07-09T00:05:51.368Z,100720.73
2018-07-09T00:08:26.771Z,100729.94
2018-07-09T00:11:07.617Z,100726.41
2018-07-09T00:13:43.651Z,100728.41
2018-07-09T00:16:16.778Z,100731.84
2018-07-09T00:18:50.769Z,100731.97
2018-07-09T00:21:24.378Z,100735.43
2018-07-09T00:23:56.936Z,100741.17
2018-07-09T00:26:31.370Z,100740.67
2018-07-09T00:29:05.782Z,100735.59
2018-07-09T00:31:41.804Z,100741.58
2018-07-09T00:34:17.449Z,100743.02
2018-07-09T00:36:50.305Z,100743.44
2018-07-09T00:39:25.188Z,100745.23
2018-07-09T00:42:00.437Z,100749.27
2018-07-09T00:44:34.389Z,100748.50
2018-07-09T00:47:08.827Z,100747.32
2018-07-09T00:49:44.730Z,100738.95
2018-07-09T00:52:19.160Z,100741.04
2018-07-09T00:54:53.557Z,100744.17
2018-07-09T00:57:27.134Z,100752.34
2018-07-09T01:00:01.079Z,100749.01
2018-07-09T01:02:36.729Z,100747.23
2018-07-09T01:05:09.983Z,100748.34
2018-07-09T01:07:46.946Z,100751.06
2018-07-09T01:10:19.607Z,100751.94
2018-07-09T01:12:57.604Z,100752.24
2018-07-09T01:15:30.089Z,100754.31
2018-07-09T01:18:04.249Z,100755.54
2018-07-09T01:20:40.046Z,100750.17
2018-07-09T01:23:14.060Z,100749.66
2018-07-09T01:25:46.462Z,100744.73
2018-07-09T01:28:19.343Z,100747.54
2018-07-09T01:30:53.162Z,100745.92
2018-07-09T01:33:26.654Z,100741.00
2018-07-09T01:36:01.550Z,100741.95
2018-07-09T01:38:34.983Z,100741.94
2018-07-09T01:41:07.527Z,100734.93
2018-07-09T01:43:40.332Z,100733.55
2018-07-09T01:46:14.446Z,100738.03
2018-07-09T01:48:47.001Z,100741.14
2018-07-09T01:51:22.041Z,100739.36
2018-07-09T01:53:55.422Z,100736.64
2018-07-09T01:56:28.053Z,100735.82
2018-07-09T01:59:01.293Z,100739.41
2018-07-09T02:01:34.038Z,100736.95
2018-07-09T02:04:07.069Z,100736.84
2018-07-09T02:06:40.058Z,100737.30
2018-07-09T02:09:20.787Z,100728.92
2018-07-09T02:11:55.579Z,100732.45
2018-07-09T02:14:34.290Z,100729.73
2018-07-09T02:17:06.923Z,100728.35
2018-07-09T02:19:40.825Z,100727.59
2018-07-09T02:22:15.690Z,100724.23
2018-07-09T02:24:49.137Z,100725.34
2018-07-09T02:27:23.003Z,100728.81
2018-07-09T02:29:55.921Z,100729.19
2018-07-09T02:32:29.487Z,100722.53
2018-07-09T02:35:01.957Z,100726.08
2018-07-09T02:37:36.698Z,100731.81
2018-07-09T02:40:10.031Z,100723.91
2018-07-09T02:42:43.632Z,100724.89
2018-07-09T02:45:17.332Z,100726.92
2018-07-09T02:47:51.562Z,100732.02
2018-07-09T02:50:25.923Z,100734.44
2018-07-09T02:52:59.522Z,100733.50
2018-07-09T02:55:32.134Z,100737.94
2018-07-09T02:58:08.389Z,100741.08
2018-07-09T03:00:42.481Z,100746.88
2018-07-09T03:03:15.026Z,100752.52
2018-07-09T03:05:47.553Z,100750.20
2018-07-09T03:08:21.345Z,100751.30
2018-07-09T03:10:53.910Z,100750.05
2018-07-09T03:13:27.410Z,100741.77
2018-07-09T03:16:01.373Z,100749.57
2018-07-09T03:18:34.063Z,100744.81
2018-07-09T03:21:08.312Z,100746.13
2018-07-09T03:23:42.011Z,100747.35
2018-07-09T03:26:14.556Z,100750.83
2018-07-09T03:28:47.098Z,100747.69
2018-07-09T03:31:21.509Z,100752.69
2018-07-09T03:33:54.175Z,100756.81
2018-07-09T03:36:26.788Z,100752.44
2018-07-09T03:38:59.774Z,100749.41
2018-07-09T03:41:32.110Z,100748.84
2018-07-09T03:44:04.914Z,100753.44
2018-07-09T03:46:38.853Z,100750.78
2018-07-09T03:49:12.194Z,100751.53
2018-07-09T03:51:45.083Z,100757.09
2018-07-09T03:54:19.425Z,100762.29
2018-07-09T03:56:55.358Z,100760.39
2018-07-09T03:59:27.902Z,100765.56
2018-07-09T04:02:02.958Z,100771.89
2018-07-09T04:04:35.401Z,100774.66
2018-07-09T04:07:08.084Z,100771.86
2018-07-09T04:09:42.125Z,100776.48
2018-07-09T04:12:14.834Z,100776.91
2018-07-09T04:14:48.312Z,100778.78
2018-07-09T04:17:22.212Z,100786.85
2018-07-09T04:19:55.971Z,100788.05
2018-07-09T04:22:28.327Z,100791.37
2018-07-09T04:25:01.418Z,100787.29
2018-07-09T04:27:33.953Z,100790.70
2018-07-09T04:30:06.749Z,100782.67
2018-07-09T04:32:40.859Z,100785.84
2018-07-09T04:35:13.573Z,100785.25
2018-07-09T04:37:46.111Z,100790.61
2018-07-09T04:40:19.205Z,100795.95
2018-07-09T04:42:51.737Z,100800.98
2018-07-09T04:45:24.185Z,100793.70
2018-07-09T04:47:57.006Z,100798.33
2018-07-09T04:50:29.408Z,100798.14
2018-07-09T04:53:04.350Z,100796.85
2018-07-09T04:55:37.341Z,100794.42
2018-07-09T04:58:09.773Z,100791.75
2018-07-09T05:00:43.821Z,100790.59
2018-07-09T05:03:16.440Z,100785.59
2018-07-09T05:05:50.657Z,100780.90
2018-07-09T05:08:23.186Z,100792.69
2018-07-09T05:10:56.070Z,100798.23
2018-07-09T05:13:28.496Z,100797.33
2018-07-09T05:16:02.305Z,100804.41
2018-07-09T05:18:35.213Z,100806.27
2018-07-09T05:21:08.049Z,100809.81
2018-07-09T05:23:41.408Z,100807.83
2018-07-09T05:26:14.211Z,100802.09
2018-07-09T05:28:47.724Z,100802.73
2018-07-09T05:31:20.412Z,100801.75
2018-07-09T05:33:53.107Z,100800.99
2018-07-09T05:36:25.581Z,100803.48
2018-07-09T05:38:59.712Z,100800.58
2018-07-09T05:41:32.745Z,100796.51
2018-07-09T05:44:05.226Z,100798.41
2018-07-09T05:46:38.396Z,100793.02
2018-07-09T05:49:12.150Z,100786.70
2018-07-09T05:51:45.214Z,100794.67
2018-07-09T05:54:18.056Z,100788.86
2018-07-09T05:56:51.798Z,100789.14
2018-07-09T05:59:25.896Z,100796.31
2018-07-09T06:01:59.077Z,100791.27
2018-07-09T06:04:31.643Z,100787.63
2018-07-09T06:07:06.612Z,100781.61
2018-07-09T06:09:40.484Z,100781.80
2018-07-09T06:12:13.297Z,100781.31
2018-07-09T06:14:46.765Z,100780.39
2018-07-09T06:17:19.502Z,100781.66
2018-07-09T06:19:54.956Z,100771.12
2018-07-09T06:22:34.369Z,100775.98
2018-07-09T06:25:07.140Z,100778.66
2018-07-09T06:27:39.596Z,100772.34
2018-07-09T06:30:14.247Z,100767.77
2018-07-09T06:32:47.916Z,100775.66
2018-07-09T06:35:22.115Z,100779.00
2018-07-09T06:37:54.657Z,100776.48
2018-07-09T06:40:30.122Z,100771.12
2018-07-09T06:43:02.735Z,100774.32
2018-07-09T06:45:35.299Z,100773.65
2018-07-09T06:48:08.201Z,100774.91
2018-07-09T06:50:42.050Z,100780.02
2018-07-09T06:53:14.631Z,100786.88
2018-07-09T06:55:47.686Z,100786.33
2018-07-09T06:58:22.166Z,100789.00
2018-07-09T07:00:54.686Z,100796.23
2018-07-09T07:03:31.734Z,100794.14
2018-07-09T07:06:07.178Z,100792.33
2018-07-09T07:08:40.713Z,100790.70
2018-07-09T07:11:14.333Z,100786.66
2018-07-09T07:13:48.141Z,100793.49
2018-07-09T07:16:21.041Z,100785.66
2018-07-09T07:18:54.789Z,100794.52
2018-07-09T07:21:28.813Z,100795.08
2018-07-09T07:24:04.502Z,100797.50
2018-07-09T07:26:38.129Z,100797.02
2018-07-09T07:29:10.690Z,100806.46
2018-07-09T07:31:43.164Z,100803.41
2018-07-09T07:34:18.953Z,100802.78
2018-07-09T07:36:53.132Z,100797.71
2018-07-09T07:39:25.713Z,100795.39
2018-07-09T07:42:00.918Z,100790.75
2018-07-09T07:44:33.468Z,100791.48
2018-07-09T07:47:06.729Z,100787.28
2018-07-09T07:49:39.949Z,100782.93
2018-07-09T07:52:12.561Z,100773.11
2018-07-09T07:54:46.477Z,100776.20
2018-07-09T07:57:21.741Z,100766.17
2018-07-09T07:59:58.909Z,100772.72
2018-07-09T08:02:31.910Z,100775.78
2018-07-09T08:05:05.157Z,100769.22
2018-07-09T08:07:38.112Z,100765.61
2018-07-09T08:10:13.793Z,100766.66
2018-07-09T08:13:27.165Z,100770.94
2018-07-09T08:15:37.297Z,100766.95
2018-07-09T08:18:10.584Z,100768.00
2018-07-09T08:20:45.631Z,100765.08
2018-07-09T08:23:19.839Z,100763.80
2018-07-09T08:25:56.806Z,100764.16
2018-07-09T08:28:29.488Z,100760.20
2018-07-09T08:31:01.834Z,100757.92
2018-07-09T08:33:36.499Z,100752.73
2018-07-09T08:36:10.048Z,100751.72
2018-07-09T08:38:42.793Z,100756.28
2018-07-09T08:41:17.325Z,100754.99
2018-07-09T08:43:50.637Z,100756.05
2018-07-09T08:46:23.791Z,100750.13
2018-07-09T08:48:57.648Z,100756.75
2018-07-09T08:51:30.350Z,100764.78
2018-07-09T08:54:10.181Z,100758.76
2018-07-09T08:56:44.313Z,100755.20
2018-07-09T08:59:17.613Z,100753.89
2018-07-09T09:01:51.112Z,100750.56
2018-07-09T09:04:24.589Z,100745.80
2018-07-09T09:06:57.139Z,100748.92
2018-07-09T09:09:31.341Z,100744.73
2018-07-09T09:12:08.552Z,100736.13
2018-07-09T09:14:43.185Z,100725.09
2018-07-09T09:17:16.778Z,100724.95
2018-07-09T09:19:50.555Z,100732.73
2018-07-09T09:22:25.370Z,100726.28
2018-07-09T09:24:58.126Z,100724.65
2018-07-09T09:27:33.382Z,100720.41
2018-07-09T09:30:09.511Z,100713.45
2018-07-09T09:32:43.345Z,100719.69
2018-07-09T09:35:16.273Z,100719.13
2018-07-09T09:37:52.338Z,100730.10
2018-07-09T09:40:27.141Z,100732.08
2018-07-09T09:43:07.880Z,100731.78
2018-07-09T09:45:40.913Z,100726.53
2018-07-09T09:48:14.329Z,100724.36
2018-07-09T09:50:48.632Z,100718.37
2018-07-09T09:53:21.661Z,100719.00
2018-07-09T09:55:57.917Z,100719.74
2018-07-09T09:58:33.908Z,100715.91
2018-07-09T10:01:13.844Z,100710.84
2018-07-09T10:03:47.794Z,100702.77
2018-07-09T10:06:21.722Z,100708.19
2018-07-09T10:08:56.268Z,100699.40
2018-07-09T10:11:35.677Z,100689.89
2018-07-09T10:14:09.215Z,100686.94
2018-07-09T10:16:42.726Z,100685.38
2018-07-09T10:19:15.445Z,100685.53
2018-07-09T10:21:49.164Z,100694.33
2018-07-09T10:24:23.373Z,100690.45
2018-07-09T10:26:59.824Z,100684.71
2018-07-09T10:29:33.599Z,100688.36
2018-07-09T10:32:08.557Z,100686.25
2018-07-09T10:34:42.039Z,100683.83
2018-07-09T10:37:16.745Z,100682.82
2018-07-09T10:39:53.025Z,100670.77
2018-07-09T10:42:26.476Z,100676.59
2018-07-09T10:45:06.704Z,100669.12
2018-07-09T10:47:44.709Z,100672.95
2018-07-09T10:50:20.754Z,100672.72
2018-07-09T10:52:53.939Z,100673.75
2018-07-09T10:55:34.549Z,100673.48
2018-07-09T10:58:13.214Z,100668.81
2018-07-09T11:00:47.184Z,100666.41
2018-07-09T11:03:21.382Z,100656.36
2018-07-09T11:05:56.433Z,100661.26
2018-07-09T11:08:31.125Z,100657.87
2018-07-09T11:11:04.268Z,100667.27
2018-07-09T11:13:40.070Z,100666.97
2018-07-09T11:16:15.049Z,100661.47
2018-07-09T11:18:49.810Z,100672.24
2018-07-09T11:21:23.611Z,100672.73
2018-07-09T11:23:59.255Z,100670.73
2018-07-09T11:26:32.641Z,100673.71
2018-07-09T11:29:07.699Z,100673.61
2018-07-09T11:31:42.058Z,100673.20
2018-07-09T11:34:15.777Z,100668.75
2018-07-09T11:36:50.313Z,100655.19
2018-07-09T11:39:26.736Z,100661.23
2018-07-09T11:42:01.847Z,100654.40
2018-07-09T11:44:36.219Z,100650.20
2018-07-09T11:47:09.650Z,100658.66
2018-07-09T11:49:42.980Z,100661.42
2018-07-09T11:52:19.006Z,100655.11
2018-07-09T11:54:52.165Z,100658.75
2018-07-09T11:57:24.868Z,100665.44
2018-07-09T11:59:59.952Z,100656.93
2018-07-09T12:02:34.318Z,100652.39
2018-07-09T12:05:09.150Z,100654.34
2018-07-09T12:07:43.130Z,100650.86
2018-07-09T12:10:16.329Z,100640.09
2018-07-09T12:12:52.328Z,100653.56
2018-07-09T12:15:29.963Z,100646.36
2018-07-09T12:18:04.986Z,100642.33
2018-07-09T12:20:39.532Z,100644.16
2018-07-09T12:23:11.950Z,100633.48
2018-07-09T12:25:46.261Z,100637.20
2018-07-09T12:28:19.158Z,100626.52
2018-07-09T12:30:55.480Z,100631.22
2018-07-09T12:33:28.225Z,100635.17
2018-07-09T12:36:04.316Z,100629.56
2018-07-09T12:38:38.292Z,100632.42
2018-07-09T12:41:10.894Z,100628.98
2018-07-09T12:43:45.991Z,100618.68
2018-07-09T12:46:20.439Z,100620.30
2018-07-09T12:48:53.035Z,100619.19
2018-07-09T12:51:26.989Z,100624.04
2018-07-09T12:53:59.933Z,100618.02
2018-07-09T12:56:37.278Z,100623.77
2018-07-09T12:59:12.033Z,100625.39
2018-07-09T13:01:46.726Z,100626.16
2018-07-09T13:04:20.656Z,100620.28
2018-07-09T13:06:55.270Z,100622.19
2018-07-09T13:09:28.430Z,100620.66
2018-07-09T13:12:02.707Z,100612.34
2018-07-09T13:14:41.767Z,100611.88
2018-07-09T13:17:18.591Z,100609.47
2018-07-09T13:19:54.753Z,100610.78
2018-07-09T13:22:30.905Z,100613.48
2018-07-09T13:25:03.545Z,100604.03
2018-07-09T13:27:38.574Z,100607.91
2018-07-09T13:30:14.627Z,100607.54
2018-07-09T13:32:48.357Z,100606.84
2018-07-09T13:35:22.620Z,100600.72
2018-07-09T13:37:55.803Z,100606.85
2018-07-09T13:40:33.298Z,100603.95
2018-07-09T13:43:08.108Z,100608.81
2018-07-09T13:45:41.323Z,100604.47
2018-07-09T13:48:16.048Z,100597.02
2018-07-09T13:50:55.922Z,100596.28
2018-07-09T13:53:39.716Z,100592.07
2018-07-09T13:56:17.193Z,100590.03
2018-07-09T13:58:53.068Z,100582.90
2018-07-09T14:01:27.844Z,100582.92
2018-07-09T14:07:04.970Z,100575.72
2018-07-09T14:09:37.441Z,100569.75
2018-07-09T14:12:11.971Z,100564.52
2018-07-09T14:14:47.044Z,100564.98
2018-07-09T14:17:20.043Z,100558.00
2018-07-09T14:20:30.409Z,100560.55
2018-07-09T14:23:06.425Z,100554.72
2018-07-09T14:25:39.629Z,100551.27
2018-07-09T14:28:12.678Z,100550.67
2018-07-09T14:30:46.789Z,100552.45
2018-07-09T14:33:19.503Z,100551.81
2018-07-09T14:35:52.544Z,100550.69
2018-07-09T14:38:37.692Z,100543.77
2018-07-09T14:41:12.391Z,100544.93
2018-07-09T14:43:45.277Z,100535.07
2018-07-09T14:46:20.882Z,100530.53
2018-07-09T14:48:55.649Z,100531.97
2018-07-09T14:51:32.501Z,100530.12
2018-07-09T14:54:07.262Z,100523.97
2018-07-09T14:56:41.470Z,100526.59
2018-07-09T14:59:17.859Z,100522.47
2018-07-09T15:01:51.381Z,100521.45
2018-07-09T15:04:33.842Z,100523.44
2018-07-09T15:07:10.831Z,100528.00
2018-07-09T15:09:44.950Z,100520.14
2018-07-09T15:12:19.348Z,100526.56
2018-07-09T15:14:53.998Z,100523.79
2018-07-09T15:17:27.406Z,100522.29
2018-07-09T15:20:01.786Z,100519.09
2018-07-09T15:22:34.365Z,100526.31
2018-07-09T15:25:08.066Z,100519.25
2018-07-09T15:27:41.781Z,100514.91
2018-07-09T15:30:17.781Z,100518.17
2018-07-09T15:32:51.130Z,100515.27
2018-07-09T15:35:31.698Z,100516.45
2018-07-09T15:38:14.701Z,100520.89
2018-07-09T15:40:55.746Z,100515.44
2018-07-09T15:43:52.331Z,100503.97
2018-07-09T15:46:37.293Z,100502.77
2018-07-09T15:49:21.521Z,100504.32
2018-07-09T15:52:19.339Z,100490.80
2018-07-09T15:55:01.370Z,100490.30
2018-07-09T15:57:46.008Z,100485.72
2018-07-09T16:00:25.443Z,100483.91
2018-07-09T16:03:14.703Z,100488.08
2018-07-09T16:05:57.720Z,100485.39
2018-07-09T16:08:40.662Z,100481.61
2018-07-09T16:11:25.517Z,100475.17
2018-07-09T16:14:11.505Z,100478.35
2018-07-09T16:16:53.528Z,100473.52
2018-07-09T16:19:36.537Z,100476.47
2018-07-09T16:22:20.188Z,100474.81
2018-07-09T16:25:02.725Z,100476.97
2018-07-09T16:27:42.534Z,100472.20
2018-07-09T16:30:25.562Z,100479.11
2018-07-09T16:33:12.765Z,100472.81
2018-07-09T16:35:48.311Z,100472.86
2018-07-09T16:38:23.817Z,100468.02
2018-07-09T16:40:58.049Z,100463.51
2018-07-09T16:43:34.523Z,100469.51
2018-07-09T16:46:08.587Z,100471.48
2018-07-09T16:48:42.650Z,100463.59
2018-07-09T16:51:16.719Z,100465.97
2018-07-09T16:53:52.769Z,100462.35
2018-07-09T16:56:26.663Z,100458.68
2018-07-09T16:59:01.249Z,100462.51
2018-07-09T17:01:33.927Z,100453.50
2018-07-09T17:04:09.794Z,100452.27
2018-07-09T17:06:44.981Z,100447.39
2018-07-09T17:09:21.713Z,100452.66
2018-07-09T17:11:59.653Z,100451.73
2018-07-09T17:14:34.711Z,100447.81
2018-07-09T17:17:19.266Z,100453.36
2018-07-09T17:19:54.689Z,100447.27
2018-07-09T17:22:30.702Z,100439.96
2018-07-09T17:25:05.709Z,100440.70
2018-07-09T17:27:40.503Z,100432.05
2018-07-09T17:30:19.091Z,100435.27
2018-07-09T17:32:54.777Z,100430.29
2018-07-09T17:35:31.068Z,100432.77
2018-07-09T17:38:08.421Z,100428.96
2018-07-09T17:40:44.520Z,100423.49
2018-07-09T17:43:18.370Z,100424.74
2018-07-09T17:45:55.725Z,100435.84
2018-07-09T17:48:30.368Z,100422.53
2018-07-09T17:51:04.168Z,100420.41
2018-07-09T17:53:38.832Z,100418.07
2018-07-09T17:56:15.427Z,100418.67
2018-07-09T17:58:49.352Z,100417.73
2018-07-09T18:01:24.621Z,100413.00
2018-07-09T18:03:59.434Z,100414.47
2018-07-09T18:06:32.999Z,100418.64
2018-07-09T18:09:10.447Z,100424.48
2018-07-09T18:11:47.020Z,100422.98
2018-07-09T18:14:23.229Z,100423.27
2018-07-09T18:16:59.673Z,100422.83
2018-07-09T18:19:52.325Z,100425.53
2018-07-09T18:22:35.730Z,100422.89
2018-07-09T18:25:18.940Z,100423.13
2018-07-09T18:27:59.283Z,100419.40
2018-07-09T18:30:40.025Z,100428.38
2018-07-09T18:33:20.166Z,100428.86
2018-07-09T18:35:55.408Z,100424.33
2018-07-09T18:38:30.843Z,100421.77
2018-07-09T18:41:22.517Z,100422.77
2018-07-09T18:43:56.867Z,100420.41
2018-07-09T18:46:33.792Z,100421.16
2018-07-09T18:49:09.570Z,100421.59
2018-07-09T18:51:44.518Z,100419.14
2018-07-09T18:54:18.086Z,100416.27
2018-07-09T18:56:51.137Z,100417.24
2018-07-09T18:59:26.598Z,100411.94
2018-07-09T19:02:02.921Z,100414.15
2018-07-09T19:04:39.257Z,100410.23
2018-07-09T19:07:21.670Z,100404.56
2018-07-09T19:10:13.677Z,100404.05
2018-07-09T19:12:49.717Z,100399.52
2018-07-09T19:15:27.184Z,100411.69
2018-07-09T19:18:29.353Z,100416.58
2018-07-09T19:21:40.056Z,100418.30
2018-07-09T19:24:12.239Z,100422.77
2018-07-09T19:26:42.708Z,100428.62
2018-07-09T19:29:17.429Z,100428.47
2018-07-09T19:31:49.516Z,100426.41
2018-07-09T19:34:22.454Z,100425.29
2018-07-09T19:36:52.753Z,100428.03
2018-07-09T19:39:25.572Z,100425.19
2018-07-09T19:41:57.150Z,100428.14
2018-07-09T19:44:27.543Z,100426.98
2018-07-09T19:47:01.597Z,100430.44
2018-07-09T19:49:35.346Z,100426.62
2018-07-09T19:52:06.884Z,100429.40
2018-07-09T19:54:38.768Z,100433.20
2018-07-09T19:57:11.641Z,100434.05
2018-07-09T19:59:43.368Z,100439.31
2018-07-09T20:02:15.554Z,100443.98
2018-07-09T20:04:48.546Z,100445.95
2018-07-09T20:07:21.553Z,100446.22
2018-07-09T20:09:57.814Z,100444.08
2018-07-09T20:12:37.792Z,100452.66
2018-07-09T20:15:19.139Z,100447.13
2018-07-09T20:17:50.368Z,100446.03
2018-07-09T20:20:21.581Z,100443.98
2018-07-09T20:22:52.966Z,100442.75
2018-07-09T20:25:25.681Z,100447.36
2018-07-09T20:28:12.011Z,100454.47
2018-07-09T20:30:49.545Z,100451.68
2018-07-09T20:33:20.205Z,100452.15
2018-07-09T20:35:55.382Z,100456.08
2018-07-09T20:38:40.196Z,100454.16
2018-07-09T20:41:11.562Z,100450.69
2018-07-09T20:43:45.731Z,100454.20
2018-07-09T20:46:17.697Z,100451.99
2018-07-09T20:48:51.840Z,100452.30
2018-07-09T20:51:22.690Z,100462.30
2018-07-09T20:53:54.918Z,100456.37
2018-07-09T20:56:27.865Z,100461.53
2018-07-09T20:58:59.965Z,100462.91
2018-07-09T21:01:40.399Z,100463.23
2018-07-09T21:04:16.841Z,100466.97
2018-07-09T21:06:49.394Z,100468.78
2018-07-09T21:09:24.093Z,100468.65
2018-07-09T21:12:04.938Z,100469.45
2018-07-09T21:14:37.127Z,100465.05
2018-07-09T21:17:11.580Z,100462.48
2018-07-09T21:19:44.959Z,100463.53
2018-07-09T21:22:15.722Z,100462.55
2018-07-09T21:24:50.326Z,100461.59
2018-07-09T21:27:20.462Z,100460.56
2018-07-09T21:29:54.342Z,100451.13
2018-07-09T21:32:26.190Z,100444.59
2018-07-09T21:35:00.717Z,100441.31
2018-07-09T21:37:33.713Z,100441.09
2018-07-09T21:40:03.942Z,100445.77
2018-07-09T21:42:40.201Z,100450.06
2018-07-09T21:45:18.125Z,100445.02
2018-07-09T21:47:59.210Z,100442.84
2018-07-09T21:50:19.372Z,100440.72
2018-07-09T21:52:50.546Z,100439.08
2018-07-09T21:55:20.633Z,100433.09
2018-07-09T21:57:51.877Z,100432.33
2018-07-09T22:00:38.633Z,100436.77
2018-07-09T22:03:09.862Z,100431.10
2018-07-09T22:05:41.649Z,100430.47
2018-07-09T22:08:14.001Z,100427.28
2018-07-09T22:10:44.868Z,100426.52
2018-07-09T22:13:15.666Z,100434.08
2018-07-09T22:15:46.309Z,100432.70
2018-07-09T22:18:17.174Z,100429.31
2018-07-09T22:20:47.475Z,100426.45
2018-07-09T22:23:17.952Z,100424.74
2018-07-09T22:25:49.929Z,100424.38
2018-07-09T22:28:22.312Z,100424.23
2018-07-09T22:31:02.521Z,100419.46
2018-07-09T22:33:40.586Z,100421.78
2018-07-09T22:36:15.173Z,100416.30
2018-07-09T22:38:48.159Z,100417.75
2018-07-09T22:41:22.794Z,100409.66
2018-07-09T22:44:15.379Z,100412.67
2018-07-09T22:46:49.875Z,100413.42
2018-07-09T22:49:29.126Z,100414.42
2018-07-09T22:52:04.129Z,100411.06
2018-07-09T22:54:39.847Z,100420.70
2018-07-09T22:57:13.018Z,100418.45
2018-07-09T22:59:47.738Z,100413.02
2018-07-09T23:02:22.485Z,100411.03
2018-07-09T23:04:55.941Z,100411.33
2018-07-09T23:07:30.785Z,100405.19
2018-07-09T23:10:58.638Z,100409.63
2018-07-09T23:14:29.981Z,100407.11
2018-07-09T23:17:36.163Z,100401.02
2018-07-09T23:21:05.473Z,100402.27
2018-07-09T23:23:40.790Z,100401.45
2018-07-09T23:26:12.041Z,100395.95
2018-07-09T23:28:46.946Z,100397.99
2018-07-09T23:31:22.448Z,100400.88
2018-07-09T23:33:55.748Z,100394.44
2018-07-09T23:36:29.903Z,100395.14
2018-07-09T23:39:00.544Z,100398.45
2018-07-09T23:41:31.242Z,100397.85
2018-07-09T23:44:03.591Z,100399.55
2018-07-09T23:46:34.835Z,100400.88
2018-07-09T23:49:06.813Z,100392.81
2018-07-09T23:51:37.813Z,100389.08
2018-07-09T23:54:08.667Z,100388.78
2018-07-09T23:57:52.644Z,100389.31
